Time;durP1;ratioP1;P1;durP2;ratioP2;P2;SDS_P1;SDS_P2;PMS_P1;PMS_P2;Temp;Humidity;BMP_temperature;BMP_pressure;BME280_temperature;BME280_humidity;BME280_pressure;Samples;Min_cycle;Max_cycle;Signal;HPM_P1;HPM_P2
2024/01/05 00:02:17;;;;;;;3.63;2.30;;;1.10;99.90;;;;;;5202657;28;20434;-48
2024/01/05 00:04:47;;;;;;;3.87;2.20;;;1.10;99.90;;;;;;5199335;28;20573;-47
2024/01/05 00:07:18;;;;;;;4.63;2.70;;;1.10;99.90;;;;;;5201949;28;20273;-48
2024/01/05 00:09:48;;;;;;;3.90;2.63;;;1.10;99.90;;;;;;5203336;28;20221;-50
2024/01/05 00:12:19;;;;;;;3.10;2.43;;;1.10;99.90;;;;;;5203843;28;20186;-50
2024/01/05 00:14:50;;;;;;;3.33;2.67;;;1.10;99.90;;;;;;5204707;28;20227;-48
2024/01/05 00:17:20;;;;;;;3.90;1.97;;;1.10;99.90;;;;;;5197994;28;20210;-48
2024/01/05 00:19:51;;;;;;;2.30;2.20;;;1.10;99.90;;;;;;5203596;28;20189;-48
2024/01/05 00:22:21;;;;;;;2.83;2.60;;;1.10;99.90;;;;;;5197645;28;20190;-47
2024/01/05 00:24:52;;;;;;;2.73;2.53;;;1.10;99.90;;;;;;5200726;28;20648;-48
2024/01/05 00:27:23;;;;;;;2.57;2.37;;;1.10;99.90;;;;;;5205564;28;20980;-48
2024/01/05 00:29:53;;;;;;;4.33;2.30;;;1.10;99.90;;;;;;5208210;28;20195;-49
2024/01/05 00:32:24;;;;;;;6.90;2.80;;;1.10;99.90;;;;;;5207513;28;20210;-49
2024/01/05 00:34:55;;;;;;;4.73;2.77;;;1.10;99.90;;;;;;5203194;28;20241;-48
2024/01/05 00:37:25;;;;;;;2.37;2.17;;;1.10;99.90;;;;;;5205210;28;20201;-53
2024/01/05 00:39:56;;;;;;;2.50;2.30;;;1.20;99.90;;;;;;5213784;28;20188;-50
2024/01/05 00:42:26;;;;;;;4.53;2.63;;;1.10;99.90;;;;;;5202611;28;20187;-47
2024/01/05 00:44:57;;;;;;;5.00;2.53;;;1.10;99.90;;;;;;5204699;28;20199;-47
2024/01/05 00:47:28;;;;;;;4.47;2.50;;;1.10;99.90;;;;;;5203466;28;20224;-47
2024/01/05 00:49:58;;;;;;;3.33;2.47;;;1.10;99.90;;;;;;5203366;28;20202;-46
2024/01/05 00:52:29;;;;;;;8.73;2.67;;;1.10;99.90;;;;;;5204879;28;20252;-47
2024/01/05 00:55:00;;;;;;;5.83;3.47;;;1.10;99.90;;;;;;5204633;28;20224;-47
2024/01/05 00:57:31;;;;;;;2.63;2.23;;;1.10;99.90;;;;;;5205462;28;20668;-50
2024/01/05 01:00:04;;;;;;;3.17;2.97;;;1.10;99.90;;;;;;5203334;28;20183;-51
2024/01/05 01:02:36;;;;;;;6.03;3.30;;;1.10;99.90;;;;;;5189143;28;20436;-47
2024/01/05 01:05:06;;;;;;;7.40;3.20;;;1.10;99.90;;;;;;5203367;28;20471;-47
2024/01/05 01:07:39;;;;;;;3.07;2.80;;;1.10;99.90;;;;;;5204374;28;20516;-50
2024/01/05 01:10:10;;;;;;;4.90;2.93;;;1.20;99.90;;;;;;5205321;28;20183;-48
2024/01/05 01:12:40;;;;;;;5.10;2.73;;;1.20;99.90;;;;;;5202663;28;20440;-51
2024/01/05 01:15:11;;;;;;;6.67;3.20;;;1.20;99.90;;;;;;5202452;28;20943;-48
2024/01/05 01:17:42;;;;;;;5.60;2.90;;;1.20;99.90;;;;;;5201361;28;20610;-49
2024/01/05 01:20:12;;;;;;;2.40;2.20;;;1.20;99.90;;;;;;5202342;28;20197;-48
2024/01/05 01:22:43;;;;;;;4.57;2.70;;;1.20;99.90;;;;;;5186888;28;20182;-50
2024/01/05 01:25:14;;;;;;;3.47;2.70;;;1.20;99.90;;;;;;5200561;28;20217;-50
2024/01/05 01:27:44;;;;;;;4.30;2.70;;;1.10;99.90;;;;;;5203890;28;20674;-51
2024/01/05 01:30:15;;;;;;;4.37;2.53;;;1.10;99.90;;;;;;5201368;28;20558;-48
2024/01/05 01:32:45;;;;;;;2.43;2.20;;;1.10;99.90;;;;;;5201369;28;20189;-48
2024/01/05 01:35:16;;;;;;;2.60;2.40;;;1.20;99.90;;;;;;5201864;28;20211;-50
2024/01/05 01:37:47;;;;;;;4.20;2.80;;;1.10;99.90;;;;;;5201290;28;20628;-49
2024/01/05 01:40:18;;;;;;;2.57;2.37;;;1.10;99.90;;;;;;5199064;28;20656;-47
2024/01/05 01:42:49;;;;;;;2.17;2.07;;;1.10;99.90;;;;;;5199194;28;20241;-47
2024/01/05 01:45:19;;;;;;;2.60;2.40;;;1.20;99.90;;;;;;5214478;28;20433;-47
2024/01/05 01:47:51;;;;;;;4.60;2.43;;;1.20;99.90;;;;;;5216683;28;20473;-49
2024/01/05 01:50:24;;;;;;;2.60;2.27;;;1.10;99.90;;;;;;5201180;28;20184;-48
2024/01/05 01:52:55;;;;;;;3.00;2.77;;;1.20;99.90;;;;;;5213088;28;20496;-47
2024/01/05 01:55:27;;;;;;;2.47;2.37;;;1.20;99.90;;;;;;5201007;28;20505;-48
2024/01/05 01:57:58;;;;;;;4.33;3.43;;;1.20;99.90;;;;;;5200475;28;20820;-48
2024/01/05 02:00:30;;;;;;;5.60;2.20;;;1.10;99.90;;;;;;5200811;28;20882;-49
2024/01/05 02:03:03;;;;;;;5.60;2.70;;;1.10;99.90;;;;;;5184974;28;20525;-49
2024/01/05 02:05:34;;;;;;;2.70;2.50;;;1.00;99.90;;;;;;5199229;28;20452;-49
2024/01/05 02:08:05;;;;;;;2.37;2.00;;;1.00;99.90;;;;;;5202089;28;20843;-49
2024/01/05 02:10:36;;;;;;;3.50;2.20;;;1.00;99.90;;;;;;5197572;28;20453;-49
2024/01/05 02:13:07;;;;;;;7.90;3.00;;;1.00;99.90;;;;;;5198194;28;20483;-48
2024/01/05 02:15:38;;;;;;;1.57;1.57;;;0.90;99.90;;;;;;5199365;28;20329;-49
2024/01/05 02:18:15;;;;;;;2.43;2.33;;;0.90;99.90;;;;;;5203768;28;20493;-49
2024/01/05 02:20:46;;;;;;;3.00;2.60;;;1.00;99.90;;;;;;5197513;28;20198;-49
2024/01/05 02:23:25;;;;;;;3.70;2.80;;;1.00;99.90;;;;;;5198768;28;20448;-50
2024/01/05 02:25:56;;;;;;;4.13;3.20;;;1.00;99.90;;;;;;5200426;28;20444;-50
2024/01/05 02:28:27;;;;;;;3.60;2.67;;;1.10;99.90;;;;;;5198594;28;20457;-49
2024/01/05 02:30:57;;;;;;;4.37;2.00;;;1.00;99.90;;;;;;5198847;28;20430;-48
2024/01/05 02:33:28;;;;;;;3.80;2.60;;;1.00;99.90;;;;;;5202763;28;20188;-50
2024/01/05 02:35:58;;;;;;;6.20;3.30;;;1.00;99.90;;;;;;5202589;28;20188;-49
2024/01/05 02:38:29;;;;;;;3.30;3.00;;;1.00;99.90;;;;;;5199399;28;20277;-49
2024/01/05 02:41:00;;;;;;;4.83;2.90;;;1.00;99.90;;;;;;5200393;28;20217;-49
2024/01/05 02:43:31;;;;;;;4.43;2.77;;;1.00;99.90;;;;;;5201670;28;20567;-49
2024/01/05 02:46:01;;;;;;;4.90;2.70;;;1.00;99.90;;;;;;5199467;28;20434;-48
2024/01/05 02:48:32;;;;;;;2.77;2.60;;;1.00;99.90;;;;;;5202111;28;20613;-48
2024/01/05 02:51:03;;;;;;;3.80;2.93;;;1.00;99.90;;;;;;5201000;28;20198;-50
2024/01/05 02:53:33;;;;;;;2.70;2.50;;;1.00;99.90;;;;;;5201387;28;20207;-49
2024/01/05 02:56:04;;;;;;;7.20;3.10;;;1.00;99.90;;;;;;5202075;28;20585;-48
2024/01/05 02:58:35;;;;;;;4.23;3.10;;;1.00;99.90;;;;;;5206760;28;20242;-49
2024/01/05 03:01:05;;;;;;;2.67;2.47;;;1.00;99.90;;;;;;5202761;28;20877;-50
2024/01/05 03:03:36;;;;;;;3.50;3.30;;;1.00;99.90;;;;;;5206337;28;20191;-48
2024/01/05 03:06:06;;;;;;;2.70;2.60;;;1.00;99.90;;;;;;5205455;28;20250;-49
2024/01/05 03:08:37;;;;;;;4.77;2.93;;;0.90;99.90;;;;;;5204962;28;20214;-49
2024/01/05 03:11:08;;;;;;;4.10;2.53;;;0.90;99.90;;;;;;5203037;28;20271;-49
2024/01/05 03:13:38;;;;;;;3.43;3.23;;;0.90;99.90;;;;;;5204916;28;20184;-48
2024/01/05 03:16:09;;;;;;;2.80;2.30;;;0.90;99.90;;;;;;5202886;28;20183;-48
2024/01/05 03:18:40;;;;;;;4.17;3.90;;;0.90;99.90;;;;;;5208317;28;20252;-49
2024/01/05 03:21:11;;;;;;;5.33;2.83;;;0.90;99.90;;;;;;5201476;28;20225;-49
2024/01/05 03:23:41;;;;;;;4.53;3.03;;;0.90;99.90;;;;;;5199906;28;20549;-48
2024/01/05 03:26:12;;;;;;;4.47;3.73;;;0.80;99.90;;;;;;5187043;28;20450;-48
2024/01/05 03:28:42;;;;;;;5.03;3.57;;;0.80;99.90;;;;;;5201509;28;20301;-48
2024/01/05 03:31:13;;;;;;;5.73;3.17;;;0.80;99.90;;;;;;5202140;28;20213;-49
2024/01/05 03:33:44;;;;;;;6.33;3.80;;;0.90;99.90;;;;;;5206182;28;20223;-48
2024/01/05 03:36:15;;;;;;;3.90;3.40;;;0.80;99.90;;;;;;5203199;28;20186;-50
2024/01/05 03:38:45;;;;;;;3.73;3.43;;;0.80;99.90;;;;;;5205955;28;20465;-48
2024/01/05 03:41:16;;;;;;;5.40;3.00;;;0.80;99.90;;;;;;5203895;28;20180;-49
2024/01/05 03:43:47;;;;;;;5.93;3.50;;;0.80;99.90;;;;;;5201351;28;20200;-48
2024/01/05 03:46:17;;;;;;;4.67;3.77;;;0.80;99.90;;;;;;5202466;28;20207;-48
2024/01/05 03:48:48;;;;;;;4.60;4.10;;;0.80;99.90;;;;;;5204478;28;20221;-49
2024/01/05 03:51:18;;;;;;;5.80;4.50;;;0.80;99.90;;;;;;5202198;28;20279;-49
2024/01/05 03:53:49;;;;;;;4.30;3.90;;;0.70;99.90;;;;;;5205573;28;20215;-49
2024/01/05 03:56:20;;;;;;;5.10;4.20;;;0.70;99.90;;;;;;5204129;28;20181;-49
2024/01/05 03:58:50;;;;;;;4.80;4.33;;;0.70;99.90;;;;;;5203676;28;20186;-49
2024/01/05 04:01:21;;;;;;;6.27;4.43;;;0.70;99.90;;;;;;5201427;28;20702;-48
2024/01/05 04:03:51;;;;;;;6.47;4.33;;;0.70;99.90;;;;;;5202514;28;20849;-49
2024/01/05 04:06:22;;;;;;;5.13;4.33;;;0.70;99.90;;;;;;5217368;28;20334;-49
2024/01/05 04:08:52;;;;;;;4.13;3.83;;;0.70;99.90;;;;;;5201567;28;20553;-49
2024/01/05 04:11:25;;;;;;;3.80;3.43;;;0.70;99.90;;;;;;5203220;28;20228;-50
2024/01/05 04:13:56;;;;;;;7.03;4.40;;;0.70;99.90;;;;;;5199901;28;20581;-51
2024/01/05 04:16:27;;;;;;;6.30;4.70;;;0.70;99.90;;;;;;5202159;28;20442;-48
2024/01/05 04:18:58;;;;;;;5.87;5.27;;;0.70;99.90;;;;;;5207549;28;20470;-47
2024/01/05 04:21:28;;;;;;;5.83;4.87;;;0.70;99.90;;;;;;5203151;28;20265;-48
2024/01/05 04:23:59;;;;;;;5.87;4.30;;;0.70;99.90;;;;;;5201127;28;20191;-48
2024/01/05 04:26:30;;;;;;;5.00;4.60;;;0.70;99.90;;;;;;5205669;28;20287;-48
2024/01/05 04:29:00;;;;;;;5.83;5.20;;;0.80;99.90;;;;;;5203482;28;20190;-47
2024/01/05 04:31:31;;;;;;;5.30;4.80;;;0.70;99.90;;;;;;5203010;28;20211;-47
2024/01/05 04:34:03;;;;;;;5.40;4.90;;;0.70;99.90;;;;;;5204058;28;20212;-47
2024/01/05 04:36:33;;;;;;;7.03;4.67;;;0.60;99.90;;;;;;5204014;28;20232;-48
2024/01/05 04:39:04;;;;;;;7.70;5.47;;;0.70;99.90;;;;;;5202483;28;20856;-48
2024/01/05 04:41:36;;;;;;;8.00;5.20;;;0.60;99.90;;;;;;5201499;28;20184;-49
2024/01/05 04:44:07;;;;;;;5.63;5.03;;;0.70;99.90;;;;;;5203277;28;20446;-49
2024/01/05 04:46:37;;;;;;;7.10;3.93;;;0.70;99.90;;;;;;5203549;28;20455;-48
2024/01/05 04:49:08;;;;;;;4.67;4.27;;;0.60;99.90;;;;;;5200101;28;20192;-48
2024/01/05 04:51:38;;;;;;;4.37;3.93;;;0.60;99.90;;;;;;5203512;28;20274;-49
2024/01/05 04:54:09;;;;;;;5.70;5.07;;;0.60;99.90;;;;;;5202882;28;20215;-49
2024/01/05 04:56:40;;;;;;;4.73;3.80;;;0.60;99.90;;;;;;5201260;28;20595;-49
2024/01/05 04:59:10;;;;;;;5.80;3.90;;;0.60;99.90;;;;;;5203054;28;20233;-49
2024/01/05 05:01:41;;;;;;;5.93;4.03;;;0.60;99.90;;;;;;5201643;28;20191;-48
2024/01/05 05:04:13;;;;;;;5.87;4.27;;;0.60;99.90;;;;;;5203777;28;20220;-48
2024/01/05 05:06:44;;;;;;;5.03;4.27;;;0.60;99.90;;;;;;5203158;28;20226;-48
2024/01/05 05:09:15;;;;;;;15.60;4.80;;;0.60;99.90;;;;;;5203622;28;20440;-49
2024/01/05 05:11:46;;;;;;;7.10;3.80;;;0.50;99.90;;;;;;5201274;28;21006;-48
2024/01/05 05:14:16;;;;;;;5.13;4.63;;;0.60;99.90;;;;;;5215991;28;20200;-49
2024/01/05 05:16:47;;;;;;;4.17;3.80;;;0.60;99.90;;;;;;5202155;28;20258;-48
2024/01/05 05:19:17;;;;;;;5.10;4.60;;;0.50;99.90;;;;;;5201882;28;20203;-49
2024/01/05 05:21:48;;;;;;;6.13;4.47;;;0.50;99.90;;;;;;5202963;28;20224;-47
2024/01/05 05:24:18;;;;;;;8.20;4.10;;;0.40;99.90;;;;;;5201807;28;20245;-47
2024/01/05 05:26:49;;;;;;;6.60;4.77;;;0.50;99.90;;;;;;5202068;28;20205;-48
2024/01/05 05:29:20;;;;;;;4.87;4.40;;;0.50;99.90;;;;;;5196137;28;20598;-49
2024/01/05 05:31:50;;;;;;;4.27;3.83;;;0.50;99.90;;;;;;5199401;28;20192;-49
2024/01/05 05:34:21;;;;;;;4.97;4.47;;;0.50;99.90;;;;;;5203331;28;20245;-48
2024/01/05 05:36:51;;;;;;;8.27;4.80;;;0.50;99.90;;;;;;5216499;28;20709;-48
2024/01/05 05:39:24;;;;;;;17.23;4.70;;;0.50;99.90;;;;;;5203259;28;20210;-48
2024/01/05 05:41:54;;;;;;;6.80;3.97;;;0.40;99.90;;;;;;5201064;28;20190;-48
2024/01/05 05:44:25;;;;;;;5.93;4.27;;;0.50;99.90;;;;;;5201060;28;20447;-47
2024/01/05 05:46:56;;;;;;;6.90;4.43;;;0.50;99.90;;;;;;5200707;28;20254;-48
2024/01/05 05:49:26;;;;;;;6.40;4.30;;;0.50;99.90;;;;;;5195933;28;20195;-48
2024/01/05 05:51:57;;;;;;;6.27;4.30;;;0.40;99.90;;;;;;5203307;28;20199;-48
2024/01/05 05:54:27;;;;;;;7.00;5.37;;;0.50;99.90;;;;;;5200772;28;20337;-49
2024/01/05 05:56:58;;;;;;;9.50;5.40;;;0.40;99.90;;;;;;5203585;28;20207;-50
2024/01/05 05:59:29;;;;;;;4.83;4.43;;;0.40;99.90;;;;;;5203476;28;20188;-48
2024/01/05 06:02:00;;;;;;;6.63;4.50;;;0.40;99.90;;;;;;5201706;28;20179;-47
2024/01/05 06:04:30;;;;;;;8.07;4.27;;;0.40;99.90;;;;;;5203186;28;20434;-47
2024/01/05 06:07:01;;;;;;;4.37;3.67;;;0.40;99.90;;;;;;5203313;28;20215;-48
2024/01/05 06:09:32;;;;;;;4.77;3.90;;;0.40;99.90;;;;;;5204116;28;20184;-48
2024/01/05 06:12:03;;;;;;;4.80;3.77;;;0.40;99.90;;;;;;5200839;28;20560;-48
2024/01/05 06:14:33;;;;;;;5.80;4.17;;;0.40;99.90;;;;;;5200750;28;20212;-47
2024/01/05 06:17:04;;;;;;;2.90;2.70;;;0.40;99.90;;;;;;5201841;28;20463;-49
2024/01/05 06:19:35;;;;;;;5.80;3.50;;;0.40;99.90;;;;;;5201435;28;20620;-48
2024/01/05 06:22:05;;;;;;;3.47;3.10;;;0.40;99.90;;;;;;5201341;28;20200;-48
2024/01/05 06:24:36;;;;;;;2.70;2.60;;;0.40;99.90;;;;;;5199511;28;20187;-48
2024/01/05 06:27:07;;;;;;;5.37;3.37;;;0.40;99.90;;;;;;5196178;28;20716;-49
2024/01/05 06:29:37;;;;;;;5.47;3.30;;;0.40;99.90;;;;;;5198567;28;20262;-48
2024/01/05 06:32:08;;;;;;;4.37;3.37;;;0.40;99.90;;;;;;5201716;28;20200;-47
2024/01/05 06:34:39;;;;;;;4.73;3.00;;;0.40;99.90;;;;;;5202990;28;20218;-50
2024/01/05 06:37:10;;;;;;;5.80;2.97;;;0.40;99.90;;;;;;5204768;28;20454;-48
2024/01/05 06:39:41;;;;;;;4.73;4.07;;;0.40;99.90;;;;;;5217088;28;20656;-48
2024/01/05 06:42:12;;;;;;;5.37;3.20;;;0.40;99.90;;;;;;5190375;28;20956;-48
2024/01/05 06:44:43;;;;;;;4.10;3.80;;;0.40;99.90;;;;;;5203740;28;20450;-48
2024/01/05 06:47:13;;;;;;;5.47;3.20;;;0.40;99.90;;;;;;5204467;28;20592;-49
2024/01/05 06:49:44;;;;;;;10.30;4.23;;;0.30;99.90;;;;;;5204063;28;20202;-48
2024/01/05 06:52:15;;;;;;;21.87;4.00;;;0.30;99.90;;;;;;5207385;28;20275;-47
2024/01/05 06:54:45;;;;;;;4.43;4.00;;;0.20;99.90;;;;;;5201192;28;20223;-48
2024/01/05 06:57:16;;;;;;;5.00;3.73;;;0.20;99.90;;;;;;5204807;28;20262;-50
2024/01/05 06:59:46;;;;;;;7.97;4.10;;;0.20;99.90;;;;;;5204807;28;20286;-48
2024/01/05 07:02:17;;;;;;;6.90;4.50;;;0.10;99.90;;;;;;5199829;28;20277;-50
2024/01/05 07:04:48;;;;;;;7.93;5.23;;;0.10;99.90;;;;;;5203649;28;20208;-49
2024/01/05 07:07:19;;;;;;;8.60;5.30;;;0.10;99.90;;;;;;5205955;28;20470;-49
2024/01/05 07:09:49;;;;;;;9.70;5.73;;;0.00;99.90;;;;;;5206230;28;20640;-50
2024/01/05 07:12:20;;;;;;;6.67;5.60;;;0.00;99.90;;;;;;5205634;28;20218;-51
2024/01/05 07:14:50;;;;;;;8.17;5.30;;;0.00;99.90;;;;;;5188691;28;20303;-49
2024/01/05 07:17:21;;;;;;;14.70;5.70;;;0.00;99.90;;;;;;5203256;28;20203;-48
2024/01/05 07:19:51;;;;;;;10.23;7.47;;;0.00;99.90;;;;;;5204684;28;20195;-51
2024/01/05 07:22:22;;;;;;;10.50;7.00;;;0.00;99.90;;;;;;5204891;28;20184;-50
2024/01/05 07:24:53;;;;;;;8.30;6.90;;;0.00;99.90;;;;;;5204408;28;20211;-49
2024/01/05 07:27:23;;;;;;;24.80;7.93;;;-0.10;99.90;;;;;;5202986;28;20290;-49
2024/01/05 07:29:55;;;;;;;12.67;8.17;;;-0.10;99.90;;;;;;5204161;28;20195;-49
2024/01/05 07:32:26;;;;;;;20.87;8.27;;;-0.10;99.90;;;;;;5203102;28;20242;-49
2024/01/05 07:34:57;;;;;;;16.57;8.37;;;-0.10;99.90;;;;;;5204516;28;20469;-48
2024/01/05 07:37:27;;;;;;;12.10;8.80;;;-0.10;99.90;;;;;;5200638;28;20204;-49
2024/01/05 07:39:58;;;;;;;14.13;8.70;;;-0.10;99.90;;;;;;5203478;28;20800;-49
2024/01/05 07:42:30;;;;;;;22.17;9.80;;;-0.10;99.90;;;;;;5199816;28;20188;-48
2024/01/05 07:45:02;;;;;;;16.27;9.70;;;-0.10;99.90;;;;;;5195969;28;20291;-48
2024/01/05 07:47:33;;;;;;;13.37;9.57;;;-0.10;99.90;;;;;;5204668;28;20467;-48
2024/01/05 07:50:03;;;;;;;18.00;10.13;;;-0.10;99.90;;;;;;5204906;28;20443;-49
2024/01/05 07:52:35;;;;;;;18.97;11.23;;;-0.10;99.90;;;;;;5190641;28;20189;-50
2024/01/05 07:55:07;;;;;;;21.30;10.33;;;-0.10;99.90;;;;;;5204061;28;20222;-50
2024/01/05 07:57:37;;;;;;;18.23;10.90;;;-0.20;99.90;;;;;;5202375;28;20482;-49
2024/01/05 08:00:09;;;;;;;24.10;9.90;;;-0.20;99.90;;;;;;5204630;28;20446;-49
2024/01/05 08:02:40;;;;;;;18.80;10.87;;;-0.10;99.90;;;;;;5205725;28;20549;-47
2024/01/05 08:05:11;;;;;;;22.50;11.00;;;-0.10;99.90;;;;;;5205317;28;20438;-49
2024/01/05 08:07:44;;;;;;;21.63;11.13;;;-0.20;99.90;;;;;;5208940;28;20215;-50
2024/01/05 08:10:15;;;;;;;17.20;11.00;;;-0.10;99.90;;;;;;5207651;28;20441;-48
2024/01/05 08:12:45;;;;;;;15.57;9.83;;;-0.20;99.90;;;;;;5206615;28;20926;-49
2024/01/05 08:15:16;;;;;;;16.60;10.67;;;-0.10;99.90;;;;;;5206039;28;20473;-48
2024/01/05 08:17:47;;;;;;;21.67;11.03;;;-0.10;99.90;;;;;;5205904;28;20265;-48
2024/01/05 08:20:18;;;;;;;16.63;9.97;;;-0.20;99.90;;;;;;5202097;28;20275;-49
2024/01/05 08:22:48;;;;;;;12.93;9.10;;;-0.10;99.90;;;;;;5206503;28;20505;-47
2024/01/05 08:25:19;;;;;;;12.73;8.77;;;-0.10;99.90;;;;;;5204363;28;20193;-48
2024/01/05 08:27:49;;;;;;;16.93;9.90;;;-0.10;99.90;;;;;;5201867;28;20208;-49
2024/01/05 08:30:21;;;;;;;12.53;9.70;;;0.00;99.90;;;;;;5204352;28;20188;-49
2024/01/05 08:32:54;;;;;;;16.43;10.87;;;0.00;99.90;;;;;;5203774;28;20191;-48
2024/01/05 08:35:25;;;;;;;16.50;9.90;;;0.00;99.90;;;;;;5203434;28;20466;-48
2024/01/05 08:37:56;;;;;;;14.40;11.17;;;0.00;99.90;;;;;;5204086;28;20446;-50
2024/01/05 08:40:28;;;;;;;16.43;10.00;;;0.00;99.90;;;;;;5203641;28;21030;-48
2024/01/05 08:42:59;;;;;;;15.83;9.37;;;0.00;99.90;;;;;;5196476;28;20187;-48
2024/01/05 08:45:30;;;;;;;17.00;9.90;;;0.00;99.90;;;;;;5204883;28;20435;-48
2024/01/05 08:48:01;;;;;;;13.20;9.17;;;0.00;99.90;;;;;;5205406;28;20296;-47
2024/01/05 08:50:32;;;;;;;11.73;9.27;;;0.10;99.90;;;;;;5203426;28;20867;-48
2024/01/05 08:53:03;;;;;;;16.70;9.97;;;0.10;99.90;;;;;;5202348;28;20278;-49
2024/01/05 08:55:34;;;;;;;9.80;7.80;;;0.10;99.90;;;;;;5204217;28;20663;-48
2024/01/05 08:58:05;;;;;;;13.37;8.40;;;0.10;99.90;;;;;;5202053;28;20479;-50
2024/01/05 09:00:36;;;;;;;11.80;9.03;;;0.10;99.90;;;;;;5202097;28;20180;-50
2024/01/05 09:03:06;;;;;;;12.00;9.03;;;0.10;99.90;;;;;;5204126;28;20191;-47
2024/01/05 09:05:37;;;;;;;15.73;9.20;;;0.10;99.90;;;;;;5202595;28;20439;-48
2024/01/05 09:08:07;;;;;;;13.23;9.70;;;0.10;99.90;;;;;;5204078;28;20227;-48
2024/01/05 09:10:38;;;;;;;13.00;10.10;;;0.10;99.90;;;;;;5204193;28;20184;-50
2024/01/05 09:13:09;;;;;;;17.93;9.67;;;0.20;99.90;;;;;;5201256;28;20191;-48
2024/01/05 09:15:39;;;;;;;13.70;8.90;;;0.10;99.90;;;;;;5201410;28;20249;-50
2024/01/05 09:18:10;;;;;;;18.57;9.70;;;0.10;99.90;;;;;;5198344;28;20238;-48
2024/01/05 09:20:41;;;;;;;10.10;8.20;;;0.10;99.90;;;;;;5218018;28;20624;-49
2024/01/05 09:23:13;;;;;;;13.87;8.60;;;0.10;99.90;;;;;;5203580;28;20179;-49
2024/01/05 09:25:43;;;;;;;12.70;9.50;;;0.10;99.90;;;;;;5203629;28;20242;-49
2024/01/05 09:28:14;;;;;;;15.00;8.83;;;0.10;99.90;;;;;;5186351;28;20476;-47
2024/01/05 09:30:44;;;;;;;13.60;9.03;;;0.10;99.90;;;;;;5202744;28;20663;-48
2024/01/05 09:33:19;;;;;;;11.90;7.90;;;0.10;99.90;;;;;;5201195;28;20198;-49
2024/01/05 09:35:50;;;;;;;12.67;8.40;;;0.10;99.90;;;;;;5196207;28;20260;-48
2024/01/05 09:38:20;;;;;;;8.83;7.53;;;0.10;99.90;;;;;;5188895;28;20557;-48
2024/01/05 09:40:54;;;;;;;9.60;7.60;;;0.20;99.90;;;;;;5181713;28;20187;-48
2024/01/05 09:43:25;;;;;;;8.70;7.10;;;0.20;99.90;;;;;;5199230;28;20183;-48
2024/01/05 09:45:56;;;;;;;7.43;6.53;;;0.10;99.90;;;;;;5201385;28;20450;-50
2024/01/05 09:48:28;;;;;;;12.30;7.67;;;0.20;99.90;;;;;;5185621;28;20218;-49
2024/01/05 09:51:00;;;;;;;11.33;8.40;;;0.20;99.90;;;;;;5182465;28;21041;-48
2024/01/05 09:53:30;;;;;;;11.77;8.20;;;0.20;99.90;;;;;;5201648;28;20481;-49
2024/01/05 09:56:03;;;;;;;13.70;8.53;;;0.20;99.90;;;;;;5201654;28;20818;-48
2024/01/05 09:58:35;;;;;;;11.47;7.43;;;0.20;99.90;;;;;;5203738;28;20226;-49
2024/01/05 10:01:12;;;;;;;8.60;6.47;;;0.20;99.90;;;;;;5199275;28;20438;-50
2024/01/05 10:03:45;;;;;;;9.73;7.10;;;0.20;99.90;;;;;;5201513;28;20525;-49
2024/01/05 10:06:17;;;;;;;7.93;6.27;;;0.30;99.90;;;;;;5201007;28;20434;-48
2024/01/05 10:09:00;;;;;;;11.17;6.17;;;0.30;99.90;;;;;;5200165;28;20920;-48
2024/01/05 10:11:32;;;;;;;16.43;7.33;;;0.30;99.90;;;;;;5196990;28;20439;-49
2024/01/05 10:14:04;;;;;;;11.00;6.93;;;0.30;99.90;;;;;;5199319;28;20519;-47
2024/01/05 10:16:39;;;;;;;11.20;6.43;;;0.40;99.90;;;;;;5203966;28;20435;-48
2024/01/05 10:19:11;;;;;;;6.27;5.67;;;0.40;99.90;;;;;;5199342;28;20528;-51
2024/01/05 10:21:43;;;;;;;10.23;6.00;;;0.30;99.90;;;;;;5199707;28;20434;-49
2024/01/05 10:24:18;;;;;;;9.83;5.77;;;0.40;99.90;;;;;;5201656;28;20455;-50
2024/01/05 10:27:12;;;;;;;10.03;5.90;;;0.50;99.90;;;;;;5202412;28;20466;-49
2024/01/05 10:29:43;;;;;;;8.90;5.70;;;0.40;99.90;;;;;;5201224;28;20479;-50
2024/01/05 10:32:19;;;;;;;6.90;6.00;;;0.40;99.90;;;;;;5201789;28;20431;-50
2024/01/05 10:34:50;;;;;;;8.70;6.03;;;0.40;99.90;;;;;;5200235;28;20580;-49
2024/01/05 10:37:21;;;;;;;7.23;6.53;;;0.40;99.90;;;;;;5200502;28;20514;-50
2024/01/05 10:39:53;;;;;;;11.10;6.93;;;0.40;99.90;;;;;;5201351;28;20549;-51
2024/01/05 10:42:26;;;;;;;8.03;5.83;;;0.30;99.90;;;;;;5203264;28;20458;-51
2024/01/05 10:44:58;;;;;;;11.43;6.50;;;0.40;99.90;;;;;;5199249;28;20446;-51
2024/01/05 10:47:31;;;;;;;8.10;6.07;;;0.40;99.90;;;;;;5189234;28;20478;-52
2024/01/05 10:50:04;;;;;;;6.07;5.43;;;0.40;99.90;;;;;;5193177;28;20855;-53
2024/01/05 10:52:36;;;;;;;9.67;5.10;;;0.40;99.90;;;;;;5197094;28;20804;-48
2024/01/05 10:55:09;;;;;;;7.07;5.37;;;0.40;99.90;;;;;;5195920;28;20489;-49
2024/01/05 10:57:41;;;;;;;5.53;5.03;;;0.40;99.90;;;;;;5193908;28;20963;-49
2024/01/05 11:00:13;;;;;;;6.17;5.67;;;0.40;99.90;;;;;;5194200;28;20431;-49
2024/01/05 11:02:49;;;;;;;5.60;5.10;;;0.40;99.90;;;;;;5198105;28;20442;-48
2024/01/05 11:05:21;;;;;;;12.70;5.77;;;0.50;99.90;;;;;;5197738;28;20442;-51
2024/01/05 11:07:53;;;;;;;7.40;5.33;;;0.40;99.90;;;;;;5200637;28;20505;-49
2024/01/05 11:10:31;;;;;;;9.47;5.57;;;0.40;99.90;;;;;;5198915;28;20443;-49
2024/01/05 11:13:05;;;;;;;7.67;5.53;;;0.40;99.90;;;;;;5193993;28;20443;-51
2024/01/05 11:16:15;;;;;;;5.47;4.97;;;0.40;99.90;;;;;;5199640;28;20470;-51
2024/01/05 11:19:16;;;;;;;8.93;6.53;;;0.40;99.90;;;;;;5200560;28;20814;-50
2024/01/05 11:21:54;;;;;;;14.73;7.20;;;0.40;99.90;;;;;;5202051;28;20577;-49
2024/01/05 11:24:26;;;;;;;6.80;5.70;;;0.50;99.90;;;;;;5215391;28;20442;-48
2024/01/05 11:26:56;;;;;;;11.13;6.53;;;0.60;99.90;;;;;;5194015;28;20588;-51
2024/01/05 11:29:54;;;;;;;7.93;5.53;;;0.60;99.90;;;;;;5198607;28;20538;-51
2024/01/05 11:32:47;;;;;;;6.40;5.80;;;0.50;99.90;;;;;;5194847;28;20750;-52
2024/01/05 11:35:21;;;;;;;10.30;7.40;;;0.40;99.90;;;;;;5199504;28;20557;-49
2024/01/05 11:37:51;;;;;;;7.90;7.10;;;0.40;99.90;;;;;;5197851;28;20465;-50
2024/01/05 11:40:29;;;;;;;7.90;6.83;;;0.40;99.90;;;;;;5200778;28;20948;-50
2024/01/05 11:43:29;;;;;;;8.10;7.23;;;0.30;99.90;;;;;;5194049;28;20721;-50
2024/01/05 11:46:00;;;;;;;12.23;8.80;;;0.30;99.90;;;;;;5199089;28;20450;-51
2024/01/05 11:48:34;;;;;;;18.37;7.73;;;0.30;99.90;;;;;;5195905;28;20470;-50
2024/01/05 11:51:12;;;;;;;11.63;7.60;;;0.30;99.90;;;;;;5199324;28;20195;-50
2024/01/05 11:53:44;;;;;;;8.83;7.97;;;0.30;99.90;;;;;;5195713;28;20452;-51
2024/01/05 11:56:17;;;;;;;8.27;6.87;;;0.30;99.90;;;;;;5202811;28;20427;-51
2024/01/05 11:58:48;;;;;;;7.50;6.80;;;0.30;99.90;;;;;;5199873;28;21021;-50
2024/01/05 12:01:19;;;;;;;8.33;7.53;;;0.30;99.90;;;;;;5198529;28;20436;-50
2024/01/05 12:03:52;;;;;;;11.50;7.43;;;0.30;99.90;;;;;;5201074;28;20307;-53
2024/01/05 12:06:23;;;;;;;7.90;7.10;;;0.30;99.90;;;;;;5195849;28;20750;-51
2024/01/05 12:08:54;;;;;;;7.30;6.40;;;0.30;99.90;;;;;;5199402;28;20434;-52
2024/01/05 12:11:25;;;;;;;11.17;8.10;;;0.20;99.90;;;;;;5197386;28;20188;-48
2024/01/05 12:13:56;;;;;;;9.27;6.63;;;0.30;99.90;;;;;;5197584;28;20656;-50
2024/01/05 12:16:28;;;;;;;9.00;6.57;;;0.30;99.90;;;;;;5199585;28;20530;-49
2024/01/05 12:18:58;;;;;;;8.70;7.33;;;0.30;99.90;;;;;;5198873;28;20456;-48
2024/01/05 12:21:29;;;;;;;13.50;7.27;;;0.20;99.90;;;;;;5198768;28;20434;-49
2024/01/05 12:24:02;;;;;;;11.30;8.00;;;0.20;99.90;;;;;;5197281;28;20644;-47
2024/01/05 12:26:33;;;;;;;14.10;7.67;;;0.30;99.90;;;;;;5203091;28;20282;-47
2024/01/05 12:29:03;;;;;;;12.87;8.30;;;0.30;99.90;;;;;;5202075;28;21402;-47
2024/01/05 12:31:36;;;;;;;8.57;6.57;;;0.30;99.90;;;;;;5200188;28;20438;-48
2024/01/05 12:34:07;;;;;;;11.73;7.53;;;0.30;99.90;;;;;;5190805;28;20773;-47
2024/01/05 12:36:37;;;;;;;8.20;6.73;;;0.30;99.90;;;;;;5199854;28;20454;-48
2024/01/05 12:39:11;;;;;;;8.37;5.43;;;0.30;99.90;;;;;;5199580;28;20611;-47
2024/01/05 12:41:45;;;;;;;8.57;6.70;;;0.30;99.90;;;;;;5200138;28;20279;-47
2024/01/05 12:44:16;;;;;;;8.00;7.10;;;0.40;99.90;;;;;;5201929;28;20922;-47
2024/01/05 12:46:47;;;;;;;8.17;6.67;;;0.40;99.90;;;;;;5203178;28;20496;-47
2024/01/05 12:49:22;;;;;;;11.33;6.97;;;0.40;99.90;;;;;;5201806;28;20203;-48
2024/01/05 12:51:53;;;;;;;9.50;5.37;;;0.40;99.90;;;;;;5201281;28;21027;-47
2024/01/05 12:54:25;;;;;;;14.43;6.60;;;0.40;99.90;;;;;;5202442;28;20527;-50
2024/01/05 12:56:55;;;;;;;7.97;6.10;;;0.40;99.90;;;;;;5197356;28;20625;-47
2024/01/05 12:59:26;;;;;;;8.17;6.60;;;0.40;99.90;;;;;;5203672;28;20427;-49
2024/01/05 13:02:00;;;;;;;10.00;6.63;;;0.40;99.90;;;;;;5202313;28;20184;-48
2024/01/05 13:04:34;;;;;;;7.37;6.67;;;0.40;99.90;;;;;;5197800;28;20175;-47
2024/01/05 13:07:06;;;;;;;9.93;6.27;;;0.40;99.90;;;;;;5199048;28;20519;-46
2024/01/05 13:09:36;;;;;;;7.30;6.53;;;0.40;99.90;;;;;;5201937;28;20434;-47
2024/01/05 13:12:07;;;;;;;10.53;7.60;;;0.40;99.90;;;;;;5202134;28;20793;-47
2024/01/05 13:14:39;;;;;;;11.47;8.23;;;0.30;99.90;;;;;;5202924;28;20761;-49
2024/01/05 13:17:10;;;;;;;9.20;7.40;;;0.40;99.90;;;;;;5204304;28;20236;-47